createdAt,value
2022-10-25T00:03:54.715Z,98612.28
2022-10-25T00:09:02.115Z,98618.41
2022-10-25T00:14:09.935Z,98619.50
2022-10-25T00:19:14.843Z,98603.66
2022-10-25T00:24:22.292Z,98611.56
2022-10-25T00:29:27.255Z,98621.34
2022-10-25T00:34:32.139Z,98626.97
2022-10-25T00:39:39.524Z,98624.00
2022-10-25T00:44:55.908Z,98631.56
2022-10-25T00:50:06.465Z,98629.53
2022-10-25T00:55:17.154Z,98630.78
2022-10-25T01:00:22.581Z,98626.84
2022-10-25T01:05:27.331Z,98626.84
2022-10-25T01:10:35.102Z,98629.41
2022-10-25T01:15:49.265Z,98621.84
2022-10-25T01:21:42.676Z,98622.03
2022-10-25T01:27:12.991Z,98614.91
2022-10-25T01:32:25.213Z,98616.91
2022-10-25T01:37:37.878Z,98611.72
2022-10-25T01:42:52.003Z,98610.44
2022-10-25T01:48:05.699Z,98612.50
2022-10-25T01:53:10.580Z,98612.06
2022-10-25T01:58:28.194Z,98606.03
2022-10-25T02:03:42.806Z,98604.91
2022-10-25T02:08:51.021Z,98611.13
2022-10-25T02:14:04.948Z,98609.88
2022-10-25T02:19:15.821Z,98615.75
2022-10-25T02:24:24.514Z,98611.88
2022-10-25T02:29:32.501Z,98613.75
2022-10-25T02:34:40.001Z,98620.34
2022-10-25T02:39:45.207Z,98613.38
2022-10-25T02:44:49.906Z,98615.13
2022-10-25T02:49:57.273Z,98615.47
2022-10-25T02:55:02.344Z,98611.81
2022-10-25T03:00:08.941Z,98622.34
2022-10-25T03:05:16.317Z,98616.59
2022-10-25T03:10:21.388Z,98617.94
2022-10-25T03:15:26.362Z,98616.97
2022-10-25T03:20:34.236Z,98621.22
2022-10-25T03:25:39.373Z,98621.34
2022-10-25T03:30:45.635Z,98627.75
2022-10-25T03:35:55.606Z,98626.97
2022-10-25T03:41:00.394Z,98635.31
2022-10-25T03:46:05.259Z,98633.75
2022-10-25T03:51:12.605Z,98638.16
2022-10-25T03:56:17.877Z,98654.22
2022-10-25T04:01:23.152Z,98658.81
2022-10-25T04:06:30.911Z,98662.34
2022-10-25T04:11:35.835Z,98674.72
2022-10-25T04:16:41.325Z,98685.16
2022-10-25T04:21:49.018Z,98668.69
2022-10-25T04:26:55.112Z,98669.59
2022-10-25T04:31:59.982Z,98677.63
2022-10-25T04:37:07.876Z,98681.13
2022-10-25T04:42:13.241Z,98682.69
2022-10-25T04:47:20.506Z,98683.59
2022-10-25T04:52:28.004Z,98678.47
2022-10-25T04:57:34.361Z,98685.22
2022-10-25T05:02:39.221Z,98693.38
2022-10-25T05:07:49.449Z,98690.56
2022-10-25T05:12:56.918Z,98696.06
2022-10-25T05:18:02.280Z,98697.69
2022-10-25T05:23:11.718Z,98703.16
2022-10-25T05:28:17.117Z,98706.00
2022-10-25T05:33:22.029Z,98714.53
2022-10-25T05:38:32.024Z,98717.50
2022-10-25T05:43:39.972Z,98720.66
2022-10-25T05:48:48.943Z,98729.63
2022-10-25T05:53:59.026Z,98737.31
2022-10-25T05:59:10.440Z,98746.25
2022-10-25T06:04:16.092Z,98750.97
2022-10-25T06:09:25.715Z,98754.44
2022-10-25T06:14:30.446Z,98760.88
2022-10-25T06:19:35.433Z,98764.16
2022-10-25T06:24:42.959Z,98759.13
2022-10-25T06:29:47.972Z,98775.81
2022-10-25T06:34:53.092Z,98768.22
2022-10-25T06:40:00.429Z,98779.19
2022-10-25T06:45:05.343Z,98778.47
2022-10-25T06:50:11.669Z,98778.63
2022-10-25T06:55:22.324Z,98779.50
2022-10-25T07:00:27.104Z,98785.25
2022-10-25T07:05:32.059Z,98790.00
2022-10-25T07:10:41.727Z,98794.59
2022-10-25T07:15:46.642Z,98794.38
2022-10-25T07:20:53.904Z,98792.13
2022-10-25T07:26:02.130Z,98786.94
2022-10-25T07:31:07.121Z,98789.25
2022-10-25T07:36:12.469Z,98794.22
2022-10-25T07:41:20.351Z,98798.41
2022-10-25T07:46:26.321Z,98791.63
2022-10-25T07:51:39.547Z,98790.53
2022-10-25T07:56:46.971Z,98782.25
2022-10-25T08:01:54.060Z,98790.59
2022-10-25T08:07:02.090Z,98795.09
2022-10-25T08:12:09.992Z,98800.09
2022-10-25T08:17:16.595Z,98792.53
2022-10-25T08:22:21.421Z,98797.72
2022-10-25T08:27:29.044Z,98794.28
2022-10-25T08:32:35.778Z,98796.13
2022-10-25T08:37:40.788Z,98800.25
2022-10-25T08:43:02.700Z,98791.81
2022-10-25T08:48:14.550Z,98794.28
2022-10-25T08:53:25.488Z,98806.94
2022-10-25T08:58:47.047Z,98805.88
2022-10-25T09:03:54.816Z,98820.00
2022-10-25T09:09:13.657Z,98819.59
2022-10-25T09:14:35.044Z,98826.75
2022-10-25T09:19:47.777Z,98826.81
2022-10-25T09:25:00.882Z,98825.69
2022-10-25T09:30:11.535Z,98819.59
2022-10-25T09:35:22.492Z,98839.78
2022-10-25T09:40:32.734Z,98862.25
2022-10-25T09:45:48.742Z,98854.44
2022-10-25T09:50:59.782Z,98856.50
2022-10-25T09:56:07.783Z,98856.28
2022-10-25T10:01:19.736Z,98848.84
2022-10-25T10:06:28.402Z,98851.75
2022-10-25T10:11:35.155Z,98862.56
2022-10-25T10:16:46.976Z,98869.69
2022-10-25T10:21:54.513Z,98869.66
2022-10-25T10:27:02.247Z,98855.22
2022-10-25T10:32:27.163Z,98867.03
2022-10-25T10:37:33.792Z,98866.59
2022-10-25T10:42:41.442Z,98875.38
2022-10-25T10:47:59.718Z,98867.31
2022-10-25T10:53:11.063Z,98855.66
2022-10-25T10:58:19.233Z,98873.78
2022-10-25T11:03:59.151Z,98870.88
2022-10-25T11:09:20.498Z,98866.50
2022-10-25T11:14:27.614Z,98873.38
2022-10-25T11:19:50.135Z,98869.78
2022-10-25T11:25:10.016Z,98877.63
2022-10-25T11:30:19.297Z,98869.94
2022-10-25T11:35:41.212Z,98878.16
2022-10-25T11:40:51.565Z,98889.25
2022-10-25T11:46:02.474Z,98885.88
2022-10-25T11:51:21.235Z,98886.78
2022-10-25T11:56:41.187Z,98880.09
2022-10-25T12:02:00.483Z,98888.97
2022-10-25T12:07:16.186Z,98884.41
2022-10-25T12:12:25.298Z,98884.03
2022-10-25T12:17:33.219Z,98885.19
2022-10-25T12:22:46.777Z,98884.84
2022-10-25T12:27:57.521Z,98886.28
2022-10-25T12:33:09.758Z,98879.03
2022-10-25T12:38:25.143Z,98877.47
2022-10-25T12:43:38.071Z,98887.19
2022-10-25T12:49:16.807Z,98886.47
2022-10-25T12:54:50.798Z,98891.53
2022-10-25T13:00:07.275Z,98897.59
2022-10-25T13:05:35.317Z,98888.31
2022-10-25T13:10:46.728Z,98888.97
2022-10-25T13:15:53.814Z,98890.25
2022-10-25T13:20:58.832Z,98889.75
2022-10-25T13:26:12.228Z,98903.00
2022-10-25T13:31:46.666Z,98907.16
2022-10-25T13:36:52.811Z,98914.56
2022-10-25T13:42:05.378Z,98907.72
2022-10-25T13:47:36.715Z,98919.75
2022-10-25T13:52:48.558Z,98915.38
2022-10-25T13:57:58.478Z,98916.06
2022-10-25T14:03:25.918Z,98924.72
2022-10-25T14:08:34.426Z,98934.69
2022-10-25T14:13:51.331Z,98931.84
2022-10-25T14:18:58.265Z,98938.38
2022-10-25T14:24:10.358Z,98944.03
2022-10-25T14:29:26.663Z,98934.41
2022-10-25T14:34:32.505Z,98933.00
2022-10-25T14:39:37.301Z,98924.59
2022-10-25T14:44:52.299Z,98931.09
2022-10-25T14:49:57.510Z,98933.78
2022-10-25T14:55:07.305Z,98931.75
2022-10-25T15:00:23.915Z,98936.56
2022-10-25T15:05:28.915Z,98936.97
2022-10-25T15:10:45.978Z,98943.38
2022-10-25T15:15:54.380Z,98937.66
2022-10-25T15:21:12.205Z,98937.94
2022-10-25T15:26:28.011Z,98931.78
2022-10-25T15:31:35.684Z,98936.41
2022-10-25T15:36:42.299Z,98931.41
2022-10-25T15:41:47.239Z,98940.09
2022-10-25T15:46:54.811Z,98928.72
2022-10-25T15:52:02.008Z,98926.59
2022-10-25T15:57:07.337Z,98920.06
2022-10-25T16:02:21.857Z,98932.16
2022-10-25T16:07:27.776Z,98943.41
2022-10-25T16:12:37.749Z,98942.13
2022-10-25T16:17:47.967Z,98941.72
2022-10-25T16:22:54.742Z,98941.91
2022-10-25T16:27:59.563Z,98950.25
2022-10-25T16:33:06.970Z,98945.84
2022-10-25T16:38:12.158Z,98956.41
2022-10-25T16:43:17.952Z,98954.75
2022-10-25T16:48:26.468Z,98962.22
2022-10-25T16:53:31.980Z,98964.78
2022-10-25T16:58:37.018Z,98973.72
2022-10-25T17:03:44.678Z,98976.41
2022-10-25T17:08:50.328Z,98984.56
2022-10-25T17:13:55.083Z,98984.41
2022-10-25T17:19:03.318Z,98995.03
2022-10-25T17:24:10.833Z,98999.72
2022-10-25T17:29:15.613Z,98992.72
2022-10-25T17:34:22.999Z,99005.03
2022-10-25T17:39:28.096Z,99008.16
2022-10-25T17:44:33.181Z,99015.56
2022-10-25T17:49:40.689Z,99023.19
2022-10-25T17:54:45.615Z,99031.69
2022-10-25T17:59:50.544Z,99024.66
2022-10-25T18:10:24.185Z,99029.22
2022-10-25T18:15:29.950Z,99022.47
2022-10-25T18:20:40.600Z,99032.88
2022-10-25T18:25:53.601Z,99028.50
2022-10-25T18:31:01.910Z,99031.81
2022-10-25T18:36:15.054Z,99042.69
2022-10-25T18:41:22.140Z,99034.94
2022-10-25T18:46:32.053Z,99034.41
2022-10-25T18:51:40.717Z,99032.03
2022-10-25T18:56:48.675Z,99028.88
2022-10-25T19:01:53.841Z,99034.09
2022-10-25T19:07:04.292Z,99036.78
2022-10-25T19:12:09.379Z,99027.50
2022-10-25T19:17:14.293Z,99027.09
2022-10-25T19:22:21.982Z,99031.16
2022-10-25T19:27:29.071Z,99027.13
2022-10-25T19:32:36.572Z,99032.63
2022-10-25T19:37:44.757Z,99033.00
2022-10-25T19:42:50.434Z,99023.16
2022-10-25T19:47:57.148Z,99026.03
2022-10-25T19:53:04.930Z,99034.94
2022-10-25T19:58:10.546Z,99035.00
2022-10-25T20:03:15.826Z,99040.63
2022-10-25T20:08:23.936Z,99043.75
2022-10-25T20:13:28.877Z,99045.31
2022-10-25T20:18:35.956Z,99037.44
2022-10-25T20:23:49.391Z,99052.06
2022-10-25T20:28:55.792Z,99045.34
2022-10-25T20:34:01.673Z,99049.03
2022-10-25T20:39:09.192Z,99063.41
2022-10-25T20:44:14.834Z,99070.44
2022-10-25T20:49:19.753Z,99072.50
2022-10-25T20:54:29.428Z,99053.53
2022-10-25T20:59:34.409Z,99043.75
2022-10-25T21:04:53.020Z,99047.91
2022-10-25T21:10:01.469Z,99052.81
2022-10-25T21:15:11.854Z,99057.06
2022-10-25T21:20:17.600Z,99063.41
2022-10-25T21:25:25.643Z,99064.59
2022-10-25T21:30:30.538Z,99063.06
2022-10-25T21:35:35.534Z,99069.31
2022-10-25T21:40:43.311Z,99071.72
2022-10-25T21:45:48.075Z,99080.88
2022-10-25T21:50:58.625Z,99075.22
2022-10-25T21:56:13.221Z,99073.56
2022-10-25T22:01:19.843Z,99065.91
2022-10-25T22:06:27.798Z,99067.50
2022-10-25T22:11:37.476Z,99069.44
2022-10-25T22:16:42.836Z,99065.13
2022-10-25T22:21:48.002Z,99065.72
2022-10-25T22:26:56.267Z,99056.94
2022-10-25T22:32:01.096Z,99069.97
2022-10-25T22:37:05.885Z,99067.16
2022-10-25T22:42:14.121Z,99065.38
2022-10-25T22:47:18.954Z,99066.63
2022-10-25T22:52:23.976Z,99069.63
2022-10-25T22:57:32.747Z,99068.28
2022-10-25T23:02:37.489Z,99072.16
2022-10-25T23:07:42.352Z,99066.72
2022-10-25T23:12:51.952Z,99058.81
2022-10-25T23:17:56.676Z,99060.63
2022-10-25T23:23:01.380Z,99066.13
2022-10-25T23:28:09.027Z,99067.72
2022-10-25T23:33:15.523Z,99069.16
2022-10-25T23:38:20.402Z,99067.53
2022-10-25T23:43:27.796Z,99062.66
2022-10-25T23:48:33.025Z,99063.34
2022-10-25T23:53:38.204Z,99058.97
2022-10-25T23:58:45.773Z,99062.66
